METAR Data
IDs: Format: Raw Decoded Include TAF

Data at: 0032 UTC 26 Oct 2021

KBRO 252353Z 13009KT 10SM CLR 28/24 A2991 RMK AO2 SLP126 T02830244 10339 20283 53010 $
KBRO 252253Z 15011KT 10SM CLR 30/24 A2989 RMK AO2 SLP120 T03000239 $
KBRO 252153Z 14007KT 10SM FEW035 32/24 A2988 RMK AO2 SLP116 T03220239 $
KBRO 252053Z 13006KT 10SM SCT034 33/24 A2988 RMK AO2 SLP116 T03280239 56019 $
KBRO 251953Z 17006KT 10SM FEW034 33/23 A2988 RMK AO2 SLP118 T03280233 $
KBRO 251853Z 18006KT 10SM BKN038 33/24 A2991 RMK AO2 SLP127 T03330239 $
KBRO 251753Z 17006KT 10SM FEW029 SCT036 32/24 A2993 RMK AO2 SLP135 T03170239 10328 20239 58004 $
KBRO 251734Z 17009KT 10SM SCT028 32/24 A2994 RMK AO2 T03220244 $
KBRO 251653Z 18008KT 10SM BKN022 BKN028 31/24 A2994 RMK AO2 SLP138 T03060239 $
KBRO 251553Z 17008KT 10SM BKN018 29/24 A2995 RMK AO2 SLP140 T02940244 $
KBRO 251522Z 15009KT 10SM BKN017 29/25 A2995 RMK AO2 T02940250 $
KBRO 251453Z 14009KT 10SM FEW013 29/26 A2995 RMK AO2 SLP139 T02890261 51016 $
KBRO 251353Z 15004KT 10SM CLR 27/26 A2993 RMK AO2 SLP135 T02670256 $
KBRO 251253Z 09003KT 10SM CLR 24/24 A2992 RMK AO2 SLP130 T02440239 $
KBRO 251153Z 07004KT 10SM CLR 24/23 A2990 RMK AO2 SLP122 T02390233 10256 20222 53005 $
KBRO 251111Z 11003KT 3SM BR CLR 23/22 A2988 RMK AO2 T02280217 $
KBRO 251106Z 12003KT 1SM BR CLR 22/22 A2988 RMK AO2 T02220217 $
KBRO 251059Z AUTO 14004KT 3/4SM BR VV003 23/22 A2988 RMK AO2 T02280222 $
KBRO 251053Z AUTO 15003KT 1 3/4SM BR FEW003 23/22 A2988 RMK AO2 SLP116 T02280222 $
KBRO 251047Z AUTO 13003KT 1 1/4SM BR FEW003 23/22 A2988 RMK AO2 $
KBRO 251036Z AUTO 00000KT 3/4SM BR VV003 23/23 A2987 RMK AO2 T02330228 $
KBRO 250953Z AUTO 00000KT 1 1/4SM BR FEW005 24/23 A2987 RMK AO2 VIS 3/4V5 SLP115 T02390233 $
KBRO 250945Z AUTO 00000KT 2 1/2SM BR FEW005 24/23 A2988 RMK AO2 T02390233 $
KBRO 250934Z AUTO 00000KT 1SM BR VV007 24/23 A2988 RMK AO2 T02390233 $
KBRO 250924Z AUTO 00000KT 2SM BR SCT006 24/23 A2988 RMK AO2 VIS 3/4V5 T02390228 $
KBRO 250908Z AUTO 00000KT 1SM BR VV007 24/23 A2989 RMK AO2 T02440233 $
KBRO 250853Z AUTO 00000KT 1 1/4SM BR SCT005 24/23 A2988 RMK AO2 SLP117 T02440233 58002 $
KBRO 250844Z AUTO 00000KT 1SM BR VV005 24/23 A2988 RMK AO2 T02390233 $
KBRO 250839Z AUTO 14003KT 2SM BR FEW005 24/23 A2988 RMK AO2 T02440233 $
KBRO 250800Z AUTO 14003KT 9SM CLR 24/23 A2988 RMK AO2 T02440233 $
KBRO 250753Z AUTO 12003KT 2 1/2SM BR CLR 24/23 A2989 RMK AO2 SLP118 T02390228 $
KBRO 250653Z AUTO 16003KT 10SM FEW014 24/23 A2988 RMK AO2 SLP118 T02440233 $
KBRO 250553Z AUTO 12004KT 10SM CLR 25/24 A2989 RMK AO2 SLP119 T02500239 10283 20244 403330233 50008 $
KBRO 250512Z AUTO 12004KT 10SM SCT015 26/24 A2990 RMK AO2 T02560239 $
KBRO 250503Z AUTO 12004KT 10SM BKN016 25/23 A2990 RMK AO2 T02500233 $
KBRO 250453Z 14004KT 10SM SCT014 SCT019 25/24 A2989 RMK AO2 SLP121 T02500239 $
KBRO 250353Z 16004KT 10SM CLR 25/23 A2988 RMK AO2 SLP116 T02500233 $
KBRO 250253Z 10004KT 10SM CLR 26/24 A2986 RMK AO2 SLP111 T02560239 51021 $
KBRO 250153Z 11005KT 10SM CLR 26/24 A2985 RMK AO2 SLP106 T02610239 $
KBRO 250053Z 12005KT 10SM CLR 27/24 A2982 RMK AO2 SLP097 T02670239 $
KBRO 242353Z 13007KT 10SM CLR 28/23 A2980 RMK AO2 SLP090 T02830233 10333 20283 51005 /
KBRO 242253Z 13010KT 10SM FEW028 30/24 A2980 RMK AO2 SLP090 T03000239 $
KBRO 242153Z 14009KT 10SM FEW031 32/23 A2980 RMK AO2 SLP088 T03170233 $
KBRO 242053Z 14008KT 10SM FEW039 32/23 A2979 RMK AO2 SLP085 T03170228 56011 $
KBRO 241953Z 14008KT 10SM SCT041 32/23 A2979 RMK AO2 SLP085 T03220228 $
KBRO 241853Z 13009KT 10SM SCT036 33/24 A2980 RMK AO2 SLP090 T03330239 $
KBRO 241753Z 16009KT 10SM SCT030 BKN040 32/24 A2982 RMK AO2 SLP096 T03220244 10328 20233 58005 $
KBRO 241719Z 16009KT 10SM SCT026 BKN035 32/24 A2982 RMK AO2 T03170239 $
KBRO 241653Z 15008KT 10SM BKN025 BKN030 31/24 A2983 RMK AO2 SLP100 T03060239 $
KBRO 241650Z 14007KT 10SM BKN026 BKN030 31/24 A2983 RMK AO2 $
KBRO 241553Z 19009KT 10SM FEW020 29/24 A2984 RMK AO2 SLP102 T02940244 $
KBRO 241453Z 17005KT 10SM CLR 28/25 A2984 RMK AO2 SLP104 T02830250 53014 $
KBRO 241353Z 00000KT 10SM CLR 26/24 A2983 RMK AO2 SLP099 T02610244 $
KBRO 241253Z 11003KT 10SM CLR 24/22 A2981 RMK AO2 SLP092 T02390222 $